Time;durP1;ratioP1;P1;durP2;ratioP2;P2;SDS_P1;SDS_P2;PMS_P1;PMS_P2;Temp;Humidity;BMP_temperature;BMP_pressure;BME280_temperature;BME280_humidity;BME280_pressure;Samples;Min_cycle;Max_cycle;Signal;HPM_P1;HPM_P2
2023/11/02 08:24:38;;;;;;;25.70;4.13;;;;;;;;;;5114647;27;20422;-76
2023/11/02 08:27:05;;;;;;;27.83;3.78;;;;;;;;;;5114932;27;20133;-76
2023/11/02 08:29:32;;;;;;;21.02;3.53;;;;;;;;;;5117933;27;20048;-77
2023/11/02 08:36:49;;;;;;;16.85;3.05;;;;;;;;;;5000006;28;20414;-77
2023/11/02 08:39:17;;;;;;;21.20;3.22;;;;;;;;;;5017629;28;20123;-76
2023/11/02 08:41:44;;;;;;;17.10;3.50;;;;;;;;;;5000868;28;20089;-77
2023/11/02 08:44:11;;;;;;;27.88;4.53;;;;;;;;;;5003414;28;20042;-76
2023/11/02 08:46:39;;;;;;;24.10;3.47;;;;;;;;;;5003549;28;20058;-76
2023/11/02 08:49:06;;;;;;;25.83;3.88;;;;;;;;;;5004753;28;20052;-77
2023/11/02 08:51:33;;;;;;;31.52;4.93;;;;;;;;;;5005168;28;20054;-75
2023/11/02 08:54:02;;;;;;;18.10;4.30;;;;;;;;;;5003651;28;20439;-76
2023/11/02 08:56:29;;;;;;;16.13;3.28;;;;;;;;;;5002710;28;20177;-76
2023/11/02 08:58:56;;;;;;;22.35;3.53;;;;;;;;;;5029188;28;20070;-77
2023/11/02 09:01:24;;;;;;;21.67;3.67;;;;;;;;;;5004085;28;20030;-76
2023/11/02 09:03:52;;;;;;;17.27;3.00;;;;;;;;;;5002816;28;20042;-77
2023/11/02 09:06:20;;;;;;;24.83;7.30;;;;;;;;;;4995351;28;20050;-77
2023/11/02 09:08:49;;;;;;;16.98;2.55;;;;;;;;;;5001885;28;20046;-77
2023/11/02 09:11:17;;;;;;;14.88;2.65;;;;;;;;;;4997940;28;20616;-76
2023/11/02 09:13:44;;;;;;;12.10;2.67;;;;;;;;;;4999511;28;20042;-76
2023/11/02 09:16:11;;;;;;;29.90;3.20;;;;;;;;;;5004814;28;20044;-77
2023/11/02 09:18:40;;;;;;;12.60;2.15;;;;;;;;;;5003584;28;20066;-77
2023/11/02 09:21:08;;;;;;;11.75;2.50;;;;;;;;;;5001732;28;20069;-77
2023/11/02 09:23:34;;;;;;;19.35;2.85;;;;;;;;;;5002128;28;20042;-76
2023/11/02 09:26:02;;;;;;;17.80;2.90;;;;;;;;;;4999178;28;20045;-78
2023/11/02 09:28:29;;;;;;;19.83;4.55;;;;;;;;;;5025271;28;20111;-76
2023/11/02 09:30:55;;;;;;;21.42;2.90;;;;;;;;;;4997301;28;20042;-77
2023/11/02 09:33:22;;;;;;;21.80;3.47;;;;;;;;;;5001483;28;20038;-77
2023/11/02 09:35:49;;;;;;;27.23;3.63;;;;;;;;;;5004960;28;20144;-77
2023/11/02 09:38:15;;;;;;;24.02;3.60;;;;;;;;;;5000817;28;20954;-77
2023/11/02 09:40:42;;;;;;;25.92;3.17;;;;;;;;;;4999953;28;20432;-77
2023/11/02 09:43:10;;;;;;;18.70;4.35;;;;;;;;;;4998179;28;20141;-76
2023/11/02 09:45:37;;;;;;;14.60;2.42;;;;;;;;;;5006269;28;20133;-78
2023/11/02 09:48:04;;;;;;;15.70;2.38;;;;;;;;;;4991515;28;20046;-77
2023/11/02 09:50:31;;;;;;;21.23;4.05;;;;;;;;;;4985510;28;20046;-76
2023/11/02 09:52:58;;;;;;;12.65;2.40;;;;;;;;;;4984384;28;20426;-77
2023/11/02 09:55:27;;;;;;;17.58;2.00;;;;;;;;;;4985256;28;20077;-76
2023/11/02 09:57:55;;;;;;;20.13;2.88;;;;;;;;;;4991631;28;20493;-81
2023/11/02 10:00:22;;;;;;;16.58;4.05;;;;;;;;;;4974766;28;20035;-79
2023/11/02 10:02:50;;;;;;;21.85;3.38;;;;;;;;;;4985143;28;20085;-77
2023/11/02 10:05:17;;;;;;;21.58;4.35;;;;;;;;;;4985826;28;20050;-77
2023/11/02 10:07:49;;;;;;;25.38;4.40;;;;;;;;;;4986634;28;20050;-77
2023/11/02 10:10:16;;;;;;;17.33;3.50;;;;;;;;;;5014846;28;20380;-77
2023/11/02 10:18:40;;;;;;;17.83;3.38;;;;;;;;;;5039517;27;1985727;-75
2023/11/02 10:21:08;;;;;;;23.77;3.20;;;;;;;;;;5115151;27;20035;-75
2023/11/02 10:23:48;;;;;;;21.42;3.90;;;;;;;;;;5119568;27;20043;-75
2023/11/02 10:26:15;;;;;;;24.60;3.35;;;;;;;;;;5116804;28;20067;-74
2023/11/02 10:28:42;;;;;;;30.63;3.83;;;;;;;;;;5118901;28;20491;-78
2023/11/02 10:31:09;;;;;;;21.98;3.88;;;;;;;;;;5119972;27;20044;-75
2023/11/02 10:33:36;;;;;;;21.52;4.35;;;;;;;;;;5125808;28;20127;-75
2023/11/02 10:36:06;;;;;;;23.45;3.10;;;;;;;;;;5122105;27;20058;-75
2023/11/02 10:38:33;;;;;;;28.85;4.20;;;;;;;;;;5124750;27;20043;-75
2023/11/02 10:41:00;;;;;;;22.05;4.78;;;;;;;;;;5123719;27;20051;-74
2023/11/02 10:43:27;;;;;;;24.00;3.35;;;;;;;;;;5121125;27;20047;-75
2023/11/02 10:45:54;;;;;;;22.92;3.88;;;;;;;;;;5122156;27;20503;-75
2023/11/02 10:48:22;;;;;;;19.27;3.78;;;;;;;;;;5122947;27;20042;-75
2023/11/02 10:50:53;;;;;;;15.77;2.60;;;;;;;;;;5120254;28;20071;-75
2023/11/02 10:53:42;;;;;;;20.55;2.90;;;;;;;;;;5118153;27;20355;-76
2023/11/02 10:56:16;;;;;;;21.63;3.17;;;;;;;;;;5104621;27;20036;-75
2023/11/02 10:58:44;;;;;;;28.13;3.03;;;;;;;;;;5121212;27;20039;-75
2023/11/02 11:01:11;;;;;;;22.92;3.47;;;;;;;;;;5120955;27;20032;-75
2023/11/02 11:03:39;;;;;;;21.65;3.75;;;;;;;;;;5115402;27;20048;-74
2023/11/02 11:06:06;;;;;;;27.42;4.18;;;;;;;;;;5120191;27;20031;-76
2023/11/02 11:08:34;;;;;;;26.98;3.92;;;;;;;;;;5121143;27;20048;-75
2023/11/02 11:11:01;;;;;;;21.00;3.38;;;;;;;;;;5120992;27;20476;-75
2023/11/02 11:13:31;;;;;;;17.02;2.40;;;;;;;;;;5108192;28;20042;-75
2023/11/02 11:15:59;;;;;;;14.82;2.97;;;;;;;;;;5117730;27;20054;-75
2023/11/02 11:18:27;;;;;;;17.88;2.78;;;;;;;;;;5110546;27;20047;-75
2023/11/02 11:20:55;;;;;;;21.42;3.08;;;;;;;;;;5126002;27;20130;-75
2023/11/02 11:23:25;;;;;;;16.08;2.55;;;;;;;;;;5121449;27;20047;-75
2023/11/02 11:25:56;;;;;;;21.60;3.78;;;;;;;;;;5108278;28;20488;-75
2023/11/02 11:28:31;;;;;;;18.65;2.42;;;;;;;;;;5102085;27;20470;-75
2023/11/02 11:31:10;;;;;;;12.32;2.30;;;;;;;;;;5099388;28;20055;-75
2023/11/02 11:33:49;;;;;;;15.60;2.45;;;;;;;;;;5101538;28;20052;-75
2023/11/02 11:36:28;;;;;;;18.55;2.55;;;;;;;;;;5107729;28;20039;-76
2023/11/02 11:38:56;;;;;;;7.60;1.88;;;;;;;;;;5106722;28;20781;-75
2023/11/02 11:41:43;;;;;;;9.50;1.93;;;;;;;;;;5098912;28;20090;-75
2023/11/02 11:44:21;;;;;;;15.70;2.20;;;;;;;;;;5102055;28;20619;-75
2023/11/02 11:46:58;;;;;;;10.20;1.73;;;;;;;;;;5108697;28;20056;-75
2023/11/02 11:49:39;;;;;;;13.10;1.63;;;;;;;;;;5100655;28;20050;-75
2023/11/02 11:52:21;;;;;;;9.85;1.83;;;;;;;;;;5099341;28;20052;-75
2023/11/02 11:54:48;;;;;;;12.02;2.00;;;;;;;;;;5099293;28;20051;-75
2023/11/02 11:57:53;;;;;;;11.02;1.77;;;;;;;;;;5100311;28;20064;-75
2023/11/02 12:00:21;;;;;;;11.75;2.03;;;;;;;;;;5102375;28;20051;-75
2023/11/02 12:02:54;;;;;;;10.90;1.83;;;;;;;;;;5102561;28;20052;-75
2023/11/02 12:05:42;;;;;;;14.38;1.95;;;;;;;;;;5108925;28;20113;-75
2023/11/02 12:08:10;;;;;;;9.50;1.73;;;;;;;;;;5105951;28;20078;-75
2023/11/02 12:10:49;;;;;;;15.82;2.92;;;;;;;;;;5102526;28;20046;-75
2023/11/02 12:13:16;;;;;;;12.52;2.08;;;;;;;;;;5104558;28;20089;-74
2023/11/02 12:16:00;;;;;;;12.75;1.92;;;;;;;;;;5101757;28;20435;-76
2023/11/02 12:18:31;;;;;;;15.93;2.55;;;;;;;;;;5105757;28;20040;-76
2023/11/02 12:21:09;;;;;;;9.65;1.73;;;;;;;;;;5109835;28;20048;-77
2023/11/02 12:23:40;;;;;;;12.98;2.40;;;;;;;;;;5105057;28;20438;-75
2023/11/02 12:26:08;;;;;;;17.30;2.17;;;;;;;;;;5078454;28;20044;-75
2023/11/02 12:28:38;;;;;;;20.63;2.75;;;;;;;;;;5085740;28;20543;-74
2023/11/02 12:31:05;;;;;;;13.10;2.10;;;;;;;;;;5102554;28;20374;-74
2023/11/02 12:33:35;;;;;;;14.55;2.83;;;;;;;;;;5101815;28;20050;-74
2023/11/02 12:36:04;;;;;;;10.77;1.80;;;;;;;;;;5104789;27;20377;-74
2023/11/02 12:38:45;;;;;;;7.43;1.48;;;;;;;;;;5105633;28;20388;-74
2023/11/02 12:41:12;;;;;;;14.85;1.70;;;;;;;;;;5100959;28;20039;-75
2023/11/02 12:43:39;;;;;;;15.05;3.97;;;;;;;;;;5100719;28;20051;-75
2023/11/02 12:46:09;;;;;;;9.88;2.10;;;;;;;;;;5097543;28;20046;-74
2023/11/02 12:48:40;;;;;;;9.18;2.25;;;;;;;;;;5101477;28;20962;-75
2023/11/02 12:51:18;;;;;;;15.27;2.25;;;;;;;;;;5093234;28;20044;-75
2023/11/02 12:53:46;;;;;;;18.92;2.72;;;;;;;;;;5102654;28;20036;-75
2023/11/02 12:56:33;;;;;;;13.88;2.30;;;;;;;;;;5106229;28;20039;-75
2023/11/02 12:59:08;;;;;;;16.40;2.10;;;;;;;;;;5104110;28;20130;-75
2023/11/02 13:01:53;;;;;;;15.82;2.10;;;;;;;;;;5104705;28;20039;-75
2023/11/02 13:04:25;;;;;;;14.50;1.98;;;;;;;;;;5104103;28;20113;-75
2023/11/02 13:06:53;;;;;;;13.75;1.95;;;;;;;;;;5102449;28;20044;-75
2023/11/02 13:09:22;;;;;;;17.48;2.00;;;;;;;;;;5100879;28;20366;-75
2023/11/02 13:11:54;;;;;;;8.73;1.20;;;;;;;;;;5100667;28;20044;-75
2023/11/02 13:14:23;;;;;;;12.93;1.48;;;;;;;;;;5097475;27;20529;-75
2023/11/02 13:16:52;;;;;;;17.90;2.10;;;;;;;;;;5096714;28;20048;-74
2023/11/02 13:19:20;;;;;;;11.38;2.03;;;;;;;;;;5095118;28;20127;-75
2023/11/02 13:21:51;;;;;;;10.05;1.75;;;;;;;;;;5096809;28;20040;-75
2023/11/02 13:24:18;;;;;;;12.95;1.50;;;;;;;;;;5099403;28;20507;-75
2023/11/02 13:26:46;;;;;;;17.23;2.07;;;;;;;;;;5095367;27;20066;-75
2023/11/02 13:29:15;;;;;;;15.75;1.75;;;;;;;;;;5096848;27;20277;-75
2023/11/02 13:31:43;;;;;;;10.75;1.95;;;;;;;;;;5079318;28;20158;-75
2023/11/02 13:34:10;;;;;;;14.48;2.15;;;;;;;;;;5077353;28;20050;-74
2023/11/02 13:36:39;;;;;;;18.67;2.60;;;;;;;;;;5091013;28;20040;-75
2023/11/02 13:39:10;;;;;;;19.35;5.28;;;;;;;;;;5095622;28;20129;-76
2023/11/02 13:41:40;;;;;;;25.52;4.50;;;;;;;;;;5096231;28;20447;-75
2023/11/02 13:44:07;;;;;;;;;;;;;;;;;;5097679;28;20066;-74
2023/11/02 13:46:34;;;;;;;20.10;3.80;;;;;;;;;;5093069;28;20276;-75
2023/11/02 13:49:00;;;;;;;27.95;5.05;;;;;;;;;;5092467;28;20048;-75
2023/11/02 13:51:28;;;;;;;27.27;3.60;;;;;;;;;;5096504;28;20078;-75
2023/11/02 13:53:55;;;;;;;16.05;2.83;;;;;;;;;;5072420;28;20044;-75
2023/11/02 13:56:22;;;;;;;14.35;3.03;;;;;;;;;;5103735;28;20027;-75
2023/11/02 13:58:48;;;;;;;20.40;2.75;;;;;;;;;;5100285;28;20044;-74
2023/11/02 14:01:15;;;;;;;12.68;2.15;;;;;;;;;;5094522;28;20512;-75
2023/11/02 14:03:42;;;;;;;16.98;1.98;;;;;;;;;;5091229;28;20144;-75
2023/11/02 14:06:10;;;;;;;11.27;1.65;;;;;;;;;;5114592;27;20478;-75
2023/11/02 14:08:37;;;;;;;10.37;1.43;;;;;;;;;;5096851;28;20060;-75
2023/11/02 14:11:07;;;;;;;9.65;1.50;;;;;;;;;;5098726;28;20365;-75
2023/11/02 14:13:33;;;;;;;8.38;1.52;;;;;;;;;;5108333;28;20043;-75
2023/11/02 14:16:01;;;;;;;10.10;1.80;;;;;;;;;;5103387;28;20051;-75
2023/11/02 14:18:31;;;;;;;9.43;1.40;;;;;;;;;;5098867;28;20043;-74
2023/11/02 14:20:58;;;;;;;8.60;1.55;;;;;;;;;;5101178;28;20282;-74
2023/11/02 14:23:25;;;;;;;4.57;1.00;;;;;;;;;;5105846;28;20043;-75
2023/11/02 14:25:52;;;;;;;5.25;1.08;;;;;;;;;;5104642;28;20438;-74
2023/11/02 14:28:19;;;;;;;4.80;1.08;;;;;;;;;;5110751;28;20449;-75
2023/11/02 14:30:45;;;;;;;2.05;0.70;;;;;;;;;;5108469;28;20583;-75
2023/11/02 14:33:13;;;;;;;2.80;0.70;;;;;;;;;;5092348;28;20040;-75
2023/11/02 14:35:40;;;;;;;5.70;1.00;;;;;;;;;;5098966;28;20038;-75
2023/11/02 14:38:06;;;;;;;5.57;1.52;;;;;;;;;;5100545;28;20420;-75
2023/11/02 14:40:37;;;;;;;6.47;0.82;;;;;;;;;;5105315;28;20920;-75
2023/11/02 14:43:04;;;;;;;2.78;0.63;;;;;;;;;;5101508;28;20462;-74
2023/11/02 14:45:31;;;;;;;16.40;1.58;;;;;;;;;;5107793;28;20114;-76
2023/11/02 14:47:58;;;;;;;19.77;2.42;;;;;;;;;;5101434;28;20047;-75
2023/11/02 14:50:25;;;;;;;20.95;2.78;;;;;;;;;;5095498;28;21852;-75
2023/11/02 14:52:51;;;;;;;15.90;2.83;;;;;;;;;;5102149;28;20054;-73
2023/11/02 14:55:19;;;;;;;19.55;2.05;;;;;;;;;;5101075;28;20130;-74
2023/11/02 15:04:15;;;;;;;29.15;3.72;;;;;;;;;;5024805;28;20409;-74
2023/11/02 15:06:45;;;;;;;20.13;3.90;;;;;;;;;;5022670;28;20131;-74
2023/11/02 15:09:11;;;;;;;24.95;3.33;;;;;;;;;;5033112;28;20100;-74
2023/11/02 15:11:39;;;;;;;18.40;3.00;;;;;;;;;;5027657;28;20471;-77
2023/11/02 15:14:05;;;;;;;35.42;3.65;;;;;;;;;;5023710;28;20050;-75
2023/11/02 15:16:33;;;;;;;21.60;3.28;;;;;;;;;;5021839;28;20049;-74
2023/11/02 15:19:00;;;;;;;18.10;3.40;;;;;;;;;;5022283;28;20056;-75
2023/11/02 15:21:27;;;;;;;20.23;3.47;;;;;;;;;;5021854;28;20049;-76
2023/11/02 15:23:56;;;;;;;16.83;3.50;;;;;;;;;;5027625;28;20546;-73
2023/11/02 15:26:25;;;;;;;;;;;;;;;;;;5040748;28;20263;-74
2023/11/02 15:28:56;;;;;;;13.77;2.65;;;;;;;;;;5046232;28;19921;-74
2023/11/02 15:31:24;;;;;;;17.50;2.67;;;;;;;;;;5056831;28;20065;-75
2023/11/02 15:33:51;;;;;;;17.97;3.27;;;;;;;;;;5040102;28;20428;-74
2023/11/02 15:36:19;;;;;;;18.13;2.70;;;;;;;;;;5034840;28;20479;-74
2023/11/02 15:38:45;;;;;;;16.52;3.63;;;;;;;;;;5038138;28;20061;-74
2023/11/02 15:41:22;;;;;;;13.05;2.53;;;;;;;;;;5032820;28;20091;-74
2023/11/02 15:43:52;;;;;;;16.38;2.67;;;;;;;;;;5043692;28;20536;-73
2023/11/02 15:46:19;;;;;;;18.42;3.10;;;;;;;;;;5060583;28;20041;-73
2023/11/02 15:48:46;;;;;;;17.48;2.70;;;;;;;;;;5076126;28;20045;-76
2023/11/02 15:51:13;;;;;;;17.83;2.88;;;;;;;;;;5035779;28;20042;-77
2023/11/02 15:53:41;;;;;;;22.92;2.47;;;;;;;;;;5040536;28;20552;-72
2023/11/02 15:56:13;;;;;;;14.90;2.85;;;;;;;;;;5037805;28;20045;-72
2023/11/02 15:58:43;;;;;;;22.70;3.17;;;;;;;;;;5042658;28;20037;-72
2023/11/02 16:01:10;;;;;;;20.60;3.78;;;;;;;;;;5041093;28;20045;-71
2023/11/02 16:03:37;;;;;;;19.50;2.85;;;;;;;;;;5068336;28;20046;-72
2023/11/02 16:06:04;;;;;;;22.75;3.58;;;;;;;;;;5043163;28;20072;-72
2023/11/02 16:08:31;;;;;;;25.27;2.92;;;;;;;;;;5043824;28;20042;-73
2023/11/02 16:10:58;;;;;;;19.42;2.42;;;;;;;;;;5058038;28;20041;-72
2023/11/02 16:13:24;;;;;;;13.98;2.60;;;;;;;;;;5036657;28;20052;-72
2023/11/02 16:15:52;;;;;;;18.42;3.47;;;;;;;;;;5029195;28;20045;-73
2023/11/02 16:18:19;;;;;;;14.27;2.40;;;;;;;;;;5059806;28;20048;-73
2023/11/02 16:20:46;;;;;;;8.13;1.60;;;;;;;;;;5057159;28;20045;-73
2023/11/02 16:23:13;;;;;;;14.88;2.50;;;;;;;;;;5022810;28;20541;-72
2023/11/02 16:25:39;;;;;;;12.38;2.80;;;;;;;;;;5025318;28;20076;-72
2023/11/02 16:28:09;;;;;;;20.98;2.25;;;;;;;;;;5032821;28;20042;-72
2023/11/02 16:30:35;;;;;;;19.13;3.00;;;;;;;;;;5058434;28;20038;-76
2023/11/02 16:33:02;;;;;;;16.40;2.75;;;;;;;;;;5026727;28;20053;-74
2023/11/02 16:35:29;;;;;;;19.05;3.90;;;;;;;;;;5024868;28;20125;-73
2023/11/02 16:38:00;;;;;;;22.23;3.72;;;;;;;;;;5056906;28;20395;-74
2023/11/02 16:40:27;;;;;;;22.77;3.67;;;;;;;;;;5035091;28;20052;-73
2023/11/02 16:42:54;;;;;;;24.67;4.10;;;;;;;;;;5026884;28;20480;-74
2023/11/02 16:45:20;;;;;;;22.65;3.90;;;;;;;;;;5025719;28;20045;-74
2023/11/02 16:47:47;;;;;;;21.67;3.08;;;;;;;;;;5022248;28;20048;-74
2023/11/02 16:50:16;;;;;;;28.75;3.33;;;;;;;;;;5029411;28;20317;-73
2023/11/02 16:52:43;;;;;;;20.80;3.53;;;;;;;;;;5022921;28;20456;-74
2023/11/02 16:55:10;;;;;;;28.67;3.88;;;;;;;;;;5028021;28;20053;-73
2023/11/02 16:57:37;;;;;;;29.42;4.10;;;;;;;;;;5030556;28;20045;-74
2023/11/02 17:00:04;;;;;;;32.47;3.45;;;;;;;;;;5025624;28;20054;-73
2023/11/02 17:02:31;;;;;;;22.52;3.25;;;;;;;;;;5028790;28;20049;-74
2023/11/02 17:04:57;;;;;;;36.45;4.47;;;;;;;;;;5028330;28;20515;-75
2023/11/02 17:07:24;;;;;;;27.33;4.25;;;;;;;;;;5019598;28;20052;-75
2023/11/02 17:09:50;;;;;;;19.33;2.97;;;;;;;;;;5020950;28;20064;-75
2023/11/02 17:12:17;;;;;;;21.15;2.63;;;;;;;;;;5027586;28;20076;-74
2023/11/02 17:14:44;;;;;;;18.30;3.70;;;;;;;;;;5018543;28;20046;-74
2023/11/02 17:17:13;;;;;;;30.83;9.95;;;;;;;;;;5024322;28;20054;-74
2023/11/02 17:19:40;;;;;;;25.70;4.75;;;;;;;;;;5029979;28;20041;-74
2023/11/02 17:22:07;;;;;;;35.67;9.20;;;;;;;;;;5023739;28;20053;-75
2023/11/02 17:24:35;;;;;;;23.00;4.88;;;;;;;;;;5025021;28;20037;-73
2023/11/02 17:27:02;;;;;;;23.00;3.50;;;;;;;;;;5024909;28;20054;-74
2023/11/02 17:29:29;;;;;;;21.67;3.47;;;;;;;;;;5018987;28;20034;-73
2023/11/02 17:31:56;;;;;;;17.35;2.90;;;;;;;;;;5028112;28;20044;-74
2023/11/02 17:34:22;;;;;;;29.08;3.55;;;;;;;;;;5023603;28;20049;-74
2023/11/02 17:36:49;;;;;;;21.95;3.30;;;;;;;;;;5028084;28;20140;-73
2023/11/02 17:39:16;;;;;;;20.10;3.33;;;;;;;;;;5020770;28;20050;-74
2023/11/02 17:41:42;;;;;;;18.70;2.67;;;;;;;;;;5024199;28;20478;-75
2023/11/02 17:44:09;;;;;;;29.33;3.20;;;;;;;;;;5013656;28;20467;-73
2023/11/02 17:46:36;;;;;;;23.27;4.50;;;;;;;;;;5053842;28;20051;-74
2023/11/02 17:49:03;;;;;;;20.33;4.38;;;;;;;;;;5023997;28;20049;-75
2023/11/02 17:51:30;;;;;;;15.68;2.75;;;;;;;;;;5023131;28;20110;-74
2023/11/02 17:53:57;;;;;;;28.80;3.83;;;;;;;;;;5029287;28;20533;-74
2023/11/02 17:56:24;;;;;;;23.75;4.38;;;;;;;;;;5026031;28;20056;-74
2023/11/02 17:58:51;;;;;;;22.38;4.10;;;;;;;;;;5027806;28;20047;-74
2023/11/02 18:01:17;;;;;;;22.45;3.70;;;;;;;;;;5020914;28;20099;-75
2023/11/02 18:03:44;;;;;;;27.30;4.05;;;;;;;;;;5062016;28;20041;-74
2023/11/02 18:06:11;;;;;;;17.52;4.55;;;;;;;;;;5007519;28;20046;-75
2023/11/02 18:08:37;;;;;;;28.50;8.25;;;;;;;;;;5024059;28;20367;-75
2023/11/02 18:11:04;;;;;;;21.05;3.20;;;;;;;;;;5027146;28;20045;-74
2023/11/02 18:13:31;;;;;;;8.95;2.38;;;;;;;;;;5027023;28;20060;-74
2023/11/02 18:15:57;;;;;;;17.98;3.47;;;;;;;;;;5022087;28;20328;-75
2023/11/02 18:18:24;;;;;;;20.25;2.47;;;;;;;;;;5043700;28;20046;-74
2023/11/02 18:20:51;;;;;;;22.38;3.08;;;;;;;;;;5031685;28;20042;-74
2023/11/02 18:23:17;;;;;;;16.65;2.90;;;;;;;;;;5046029;28;20258;-75
2023/11/02 18:25:44;;;;;;;16.75;2.53;;;;;;;;;;5031455;28;20110;-75
2023/11/02 18:28:11;;;;;;;24.55;2.78;;;;;;;;;;5057824;28;20360;-74
2023/11/02 18:30:37;;;;;;;17.33;2.42;;;;;;;;;;5029445;28;20056;-75
2023/11/02 18:33:04;;;;;;;17.45;3.33;;;;;;;;;;5027375;28;20144;-73
2023/11/02 18:35:31;;;;;;;24.55;2.92;;;;;;;;;;5012491;28;20092;-75
2023/11/02 18:37:58;;;;;;;16.20;3.60;;;;;;;;;;5029982;28;20093;-74
2023/11/02 18:40:25;;;;;;;25.27;5.13;;;;;;;;;;5028599;28;20084;-74
2023/11/02 18:42:53;;;;;;;21.80;4.30;;;;;;;;;;5030396;28;20038;-75
2023/11/02 18:45:20;;;;;;;24.50;4.18;;;;;;;;;;5029840;28;20108;-74
2023/11/02 18:47:47;;;;;;;29.35;4.75;;;;;;;;;;5011772;28;20120;-74
2023/11/02 18:50:14;;;;;;;31.15;4.93;;;;;;;;;;5028896;28;20056;-74
2023/11/02 18:52:41;;;;;;;20.60;5.88;;;;;;;;;;5061988;28;20442;-74
2023/11/02 18:55:08;;;;;;;19.73;3.70;;;;;;;;;;5044504;28;20045;-74
2023/11/02 18:57:36;;;;;;;23.33;5.35;;;;;;;;;;5027838;28;20045;-74
2023/11/02 19:00:05;;;;;;;20.27;3.78;;;;;;;;;;5011841;28;20107;-75
2023/11/02 19:02:38;;;;;;;25.77;3.38;;;;;;;;;;5030243;28;20037;-74
2023/11/02 19:05:07;;;;;;;23.58;3.60;;;;;;;;;;5057387;28;20037;-72
2023/11/02 19:07:34;;;;;;;29.25;3.35;;;;;;;;;;5011952;28;20132;-74
2023/11/02 19:10:01;;;;;;;21.38;2.95;;;;;;;;;;5030010;28;20577;-75
2023/11/02 19:12:28;;;;;;;21.90;3.50;;;;;;;;;;5025553;28;20045;-75
2023/11/02 19:14:54;;;;;;;24.52;3.30;;;;;;;;;;5023752;28;20054;-75
2023/11/02 19:17:21;;;;;;;28.52;3.75;;;;;;;;;;5027506;28;20045;-75
2023/11/02 19:19:49;;;;;;;18.75;3.20;;;;;;;;;;5028355;28;20037;-75
2023/11/02 19:22:15;;;;;;;22.02;3.33;;;;;;;;;;5026490;28;20049;-75
2023/11/02 19:24:42;;;;;;;22.83;3.55;;;;;;;;;;5023555;28;20053;-74
2023/11/02 19:27:10;;;;;;;15.23;3.03;;;;;;;;;;5029265;28;20431;-75
2023/11/02 19:29:39;;;;;;;16.55;3.42;;;;;;;;;;5029529;28;20049;-75
2023/11/02 19:32:06;;;;;;;17.25;3.55;;;;;;;;;;5029440;28;20045;-77
2023/11/02 19:34:33;;;;;;;18.67;3.13;;;;;;;;;;5027910;28;20476;-75
2023/11/02 19:36:59;;;;;;;17.63;2.63;;;;;;;;;;5025459;28;20042;-76
2023/11/02 19:39:29;;;;;;;23.67;2.95;;;;;;;;;;5012152;28;20547;-77
2023/11/02 19:41:56;;;;;;;22.70;3.03;;;;;;;;;;5029725;28;20037;-76
2023/11/02 19:44:23;;;;;;;13.88;3.05;;;;;;;;;;5028137;28;20045;-78
2023/11/02 19:46:51;;;;;;;24.42;3.00;;;;;;;;;;5011962;28;20033;-78
2023/11/02 19:49:19;;;;;;;17.90;3.10;;;;;;;;;;5045802;28;20496;-78
2023/11/02 19:51:47;;;;;;;22.55;3.63;;;;;;;;;;5033028;28;20069;-78
2023/11/02 19:54:14;;;;;;;12.75;2.85;;;;;;;;;;5031821;28;20037;-77
2023/11/02 19:56:44;;;;;;;12.80;2.13;;;;;;;;;;5033054;28;20041;-76
2023/11/02 19:59:11;;;;;;;;;;;;;;;;;;5029621;28;20682;-76
2023/11/02 20:01:38;;;;;;;13.18;3.30;;;;;;;;;;5034412;28;19921;-76
2023/11/02 20:04:06;;;;;;;11.30;2.20;;;;;;;;;;5029789;28;20060;-76
2023/11/02 20:06:35;;;;;;;18.23;3.67;;;;;;;;;;5031351;28;20049;-77
2023/11/02 20:09:08;;;;;;;19.45;5.43;;;;;;;;;;5030336;28;20045;-76
2023/11/02 20:11:35;;;;;;;18.77;3.45;;;;;;;;;;5032919;28;20122;-77
2023/11/02 20:14:01;;;;;;;16.73;3.13;;;;;;;;;;5036571;28;20056;-77
2023/11/02 20:16:28;;;;;;;15.52;2.50;;;;;;;;;;5031984;28;20133;-77
2023/11/02 20:18:55;;;;;;;13.65;2.03;;;;;;;;;;5032453;28;20095;-77
2023/11/02 20:21:23;;;;;;;22.65;3.60;;;;;;;;;;5030122;28;20495;-77
2023/11/02 20:23:52;;;;;;;12.52;2.40;;;;;;;;;;5028738;28;20065;-76
2023/11/02 20:26:20;;;;;;;14.50;2.83;;;;;;;;;;5032023;28;20487;-77
2023/11/02 20:28:46;;;;;;;16.70;3.42;;;;;;;;;;5025843;28;20124;-77
2023/11/02 20:31:13;;;;;;;22.90;3.70;;;;;;;;;;5045113;28;20050;-77
2023/11/02 20:33:41;;;;;;;21.02;3.67;;;;;;;;;;5035431;28;20042;-78
2023/11/02 20:36:09;;;;;;;27.50;2.97;;;;;;;;;;5046258;28;20049;-77
2023/11/02 20:38:35;;;;;;;22.42;3.33;;;;;;;;;;5045340;28;20037;-77
2023/11/02 20:41:04;;;;;;;18.40;4.97;;;;;;;;;;5031992;28;20522;-77
2023/11/02 20:43:31;;;;;;;27.20;6.00;;;;;;;;;;5023505;28;20121;-77
2023/11/02 20:46:00;;;;;;;22.88;4.55;;;;;;;;;;5030774;28;20099;-76
2023/11/02 20:48:30;;;;;;;20.25;3.53;;;;;;;;;;5028884;28;20033;-75
2023/11/02 20:50:57;;;;;;;20.33;3.35;;;;;;;;;;5029190;28;20049;-76
2023/11/02 20:53:23;;;;;;;19.13;2.95;;;;;;;;;;5030300;28;20045;-76
2023/11/02 20:55:50;;;;;;;25.02;3.25;;;;;;;;;;5030646;28;20042;-76
2023/11/02 20:58:17;;;;;;;22.17;3.53;;;;;;;;;;5030558;28;20034;-77
2023/11/02 21:00:43;;;;;;;17.08;2.90;;;;;;;;;;5030113;28;20029;-77
2023/11/02 21:03:21;;;;;;;19.58;5.53;;;;;;;;;;5031600;28;20107;-77
2023/11/02 21:05:48;;;;;;;74.95;32.97;;;;;;;;;;5029580;28;20033;-77
2023/11/02 21:08:15;;;;;;;40.80;8.05;;;;;;;;;;5061525;28;20061;-76
2023/11/02 21:10:42;;;;;;;25.35;7.22;;;;;;;;;;5029594;28;20052;-75
2023/11/02 21:13:11;;;;;;;34.15;7.35;;;;;;;;;;5031493;28;20476;-75
2023/11/02 21:15:38;;;;;;;30.30;5.95;;;;;;;;;;5030221;28;20065;-76
2023/11/02 21:18:05;;;;;;;43.35;8.82;;;;;;;;;;5032527;28;20124;-76
2023/11/02 21:20:32;;;;;;;42.35;10.55;;;;;;;;;;5013406;28;20363;-77
2023/11/02 21:22:59;;;;;;;25.30;4.25;;;;;;;;;;5062990;28;20037;-77
2023/11/02 21:25:25;;;;;;;23.95;4.75;;;;;;;;;;5029453;28;20095;-77
2023/11/02 21:27:52;;;;;;;21.98;2.90;;;;;;;;;;5042830;28;20041;-76
2023/11/02 21:30:18;;;;;;;15.95;2.90;;;;;;;;;;5017171;28;20513;-75
2023/11/02 21:32:45;;;;;;;16.00;2.45;;;;;;;;;;5032470;28;20049;-76
2023/11/02 21:35:12;;;;;;;16.98;3.00;;;;;;;;;;5030183;28;20041;-77
2023/11/02 21:37:38;;;;;;;14.32;2.10;;;;;;;;;;5045777;28;20562;-76
2023/11/02 21:40:05;;;;;;;17.15;2.03;;;;;;;;;;5048351;28;20050;-75
2023/11/02 21:42:32;;;;;;;14.90;2.42;;;;;;;;;;5022100;28;20049;-75
2023/11/02 21:44:59;;;;;;;18.10;2.67;;;;;;;;;;5024489;28;20482;-76
2023/11/02 21:47:26;;;;;;;12.57;1.90;;;;;;;;;;5029203;28;20467;-76
2023/11/02 21:49:53;;;;;;;17.58;2.90;;;;;;;;;;5057728;28;20127;-76
2023/11/02 21:52:20;;;;;;;14.75;1.80;;;;;;;;;;5024544;28;20050;-76
2023/11/02 21:54:47;;;;;;;13.80;1.92;;;;;;;;;;5031473;28;20371;-76
2023/11/02 21:57:13;;;;;;;10.50;1.75;;;;;;;;;;5042400;28;20552;-76
2023/11/02 21:59:40;;;;;;;20.83;2.35;;;;;;;;;;5062989;28;20033;-76
2023/11/02 22:02:07;;;;;;;14.07;1.77;;;;;;;;;;5029744;28;20112;-77
2023/11/02 22:04:33;;;;;;;15.75;2.25;;;;;;;;;;5028933;28;20329;-76
2023/11/02 22:07:00;;;;;;;14.40;1.95;;;;;;;;;;5029513;28;20037;-75
2023/11/02 22:09:27;;;;;;;11.18;1.83;;;;;;;;;;5028969;28;20041;-75
2023/11/02 22:11:55;;;;;;;12.43;1.80;;;;;;;;;;5030663;28;20042;-75
2023/11/02 22:14:22;;;;;;;13.02;1.80;;;;;;;;;;5029662;28;20543;-76
2023/11/02 22:16:48;;;;;;;11.15;1.92;;;;;;;;;;5028787;28;20051;-76
2023/11/02 22:19:15;;;;;;;11.82;1.50;;;;;;;;;;5029870;28;20042;-76
2023/11/02 22:21:43;;;;;;;13.65;1.77;;;;;;;;;;5031675;28;20041;-77
2023/11/02 22:24:09;;;;;;;12.35;1.40;;;;;;;;;;5030847;28;20045;-77
2023/11/02 22:26:36;;;;;;;9.65;1.67;;;;;;;;;;5029826;28;20052;-77
2023/11/02 22:29:03;;;;;;;11.10;1.38;;;;;;;;;;5029986;28;20049;-77
2023/11/02 22:31:30;;;;;;;18.95;2.05;;;;;;;;;;5013325;28;20057;-77
2023/11/02 22:33:57;;;;;;;13.70;1.77;;;;;;;;;;5032498;28;20046;-76
2023/11/02 22:36:24;;;;;;;12.93;2.13;;;;;;;;;;5032424;28;20049;-76
2023/11/02 22:38:50;;;;;;;8.35;1.65;;;;;;;;;;5015163;28;20046;-77
2023/11/02 22:41:17;;;;;;;19.70;1.75;;;;;;;;;;5031132;28;20049;-76
2023/11/02 22:43:44;;;;;;;9.05;1.42;;;;;;;;;;5015187;28;20037;-76
2023/11/02 22:46:11;;;;;;;14.00;2.30;;;;;;;;;;5064256;28;20046;-77
2023/11/02 22:48:40;;;;;;;11.57;2.15;;;;;;;;;;5047177;28;20037;-75
2023/11/02 22:51:10;;;;;;;10.98;2.00;;;;;;;;;;5063823;28;20500;-76
2023/11/02 22:53:37;;;;;;;11.48;2.05;;;;;;;;;;5031252;28;20037;-76
2023/11/02 22:56:08;;;;;;;14.05;1.98;;;;;;;;;;5030928;28;20498;-75
2023/11/02 22:58:35;;;;;;;11.40;1.42;;;;;;;;;;5043113;28;20041;-77
2023/11/02 23:01:04;;;;;;;11.52;2.00;;;;;;;;;;5038536;28;20488;-77
2023/11/02 23:03:32;;;;;;;13.02;1.63;;;;;;;;;;5028957;28;20053;-76
2023/11/02 23:05:59;;;;;;;8.13;1.63;;;;;;;;;;5047258;28;20033;-77
2023/11/02 23:08:28;;;;;;;16.75;2.35;;;;;;;;;;5030440;28;20546;-77
2023/11/02 23:10:55;;;;;;;16.42;1.55;;;;;;;;;;5014881;28;20091;-76
2023/11/02 23:13:22;;;;;;;9.02;1.58;;;;;;;;;;5031988;28;20056;-77
2023/11/02 23:15:49;;;;;;;9.13;1.10;;;;;;;;;;5047866;28;20042;-76
2023/11/02 23:18:16;;;;;;;6.25;1.10;;;;;;;;;;5032193;28;20037;-75